Time;durP1;ratioP1;P1;durP2;ratioP2;P2;SDS_P1;SDS_P2;PMS_P1;PMS_P2;Temp;Humidity;BMP_temperature;BMP_pressure;BME280_temperature;BME280_humidity;BME280_pressure;Samples;Min_cycle;Max_cycle;Signal;HPM_P1;HPM_P2
2022/04/06 00:02:07;;;;;;;;;3.67;3.00;;;;;13.25;51.90;100668.66;5018043;28;45541;-67
2022/04/06 00:04:32;;;;;;;;;4.67;3.00;;;;;13.17;51.65;100657.09;5015774;28;45502;-68
2022/04/06 00:06:57;;;;;;;;;4.00;1.67;;;;;13.20;51.60;100662.13;5017542;28;46389;-68
2022/04/06 00:09:23;;;;;;;;;3.67;3.33;;;;;13.14;51.69;100660.91;5016406;28;45260;-68
2022/04/06 00:11:49;;;;;;;;;2.00;2.00;;;;;13.17;51.83;100667.75;5017914;28;45238;-68
2022/04/06 00:14:14;;;;;;;;;2.00;1.00;;;;;13.04;51.25;100645.06;5017862;28;45452;-69
2022/04/06 00:16:40;;;;;;;;;6.33;5.33;;;;;13.15;51.20;100667.09;5017421;28;45423;-67
2022/04/06 00:19:05;;;;;;;;;2.33;2.33;;;;;13.16;50.75;100668.75;5015585;28;45324;-67
2022/04/06 00:21:31;;;;;;;;;2.33;1.67;;;;;13.07;51.30;100655.41;5016486;28;45443;-68
2022/04/06 00:23:56;;;;;;;;;5.00;2.33;;;;;13.17;50.80;100670.44;5017526;28;45360;-67
2022/04/06 00:26:22;;;;;;;;;2.00;2.00;;;;;12.76;50.70;100604.41;5017668;28;46437;-67
2022/04/06 00:28:48;;;;;;;;;3.00;2.67;;;;;13.07;50.57;100665.25;5017454;28;45428;-69
2022/04/06 00:31:13;;;;;;;;;2.33;2.33;;;;;13.00;50.93;100650.84;5017564;28;45233;-68
2022/04/06 00:33:39;;;;;;;;;2.67;2.67;;;;;12.93;50.52;100647.16;5017475;28;45462;-67
2022/04/06 00:36:04;;;;;;;;;3.33;1.00;;;;;12.51;51.15;100585.81;5016567;28;45702;-68
2022/04/06 00:38:30;;;;;;;;;2.00;2.00;;;;;13.03;50.86;100651.38;5016093;28;46210;-67
2022/04/06 00:40:55;;;;;;;;;1.00;1.00;;;;;13.04;51.10;100647.72;5017566;28;45186;-68
2022/04/06 00:43:21;;;;;;;;;1.00;1.00;;;;;12.97;50.87;100624.50;5017361;28;45465;-68
2022/04/06 00:45:46;;;;;;;;;2.67;1.00;;;;;13.05;50.78;100641.38;5017599;28;45535;-68
2022/04/06 00:48:15;;;;;;;;;1.00;1.00;;;;;13.03;50.71;100637.22;5016861;28;45548;-67
2022/04/06 00:50:42;;;;;;;;;2.67;1.67;;;;;13.02;50.62;100635.53;5017303;28;45503;-68
2022/04/06 00:53:08;;;;;;;;;0.67;0.67;;;;;12.96;51.12;100615.66;5015597;28;45664;-67
2022/04/06 00:55:39;;;;;;;;;1.00;1.00;;;;;12.91;51.91;100626.00;5015677;28;47954;-68
2022/04/06 00:58:05;;;;;;;;;3.67;2.00;;;;;12.83;51.68;100614.47;5015631;28;45692;-68
2022/04/06 01:00:31;;;;;;;;;4.00;1.00;;;;;12.49;51.93;100575.31;5016497;28;45419;-68
2022/04/06 01:02:56;;;;;;;;;2.00;2.00;;;;;12.79;51.92;100630.78;5016935;28;45363;-68
2022/04/06 01:05:22;;;;;;;;;2.00;1.00;;;;;12.77;52.61;100626.59;5016840;28;45812;-70
2022/04/06 01:07:50;;;;;;;;;3.67;2.00;;;;;12.51;52.69;100599.16;5017031;28;45508;-70
2022/04/06 01:10:16;;;;;;;;;1.67;1.00;;;;;12.69;52.77;100623.91;5015593;28;45283;-67
2022/04/06 01:12:46;;;;;;;;;4.33;3.33;;;;;12.63;53.06;100624.56;5017017;28;45241;-69
2022/04/06 01:15:12;;;;;;;;;2.00;2.00;;;;;12.59;53.63;100618.69;4995703;28;46351;-67
2022/04/06 01:17:37;;;;;;;;;2.33;2.33;;;;;12.51;53.53;100609.81;4997970;28;45604;-69
2022/04/06 01:20:05;;;;;;;;;3.00;3.00;;;;;12.35;54.12;100602.56;5017107;28;45505;-68
2022/04/06 01:22:31;;;;;;;;;1.00;1.00;;;;;12.35;53.85;100605.25;5017047;28;45301;-69
2022/04/06 01:24:57;;;;;;;;;2.00;2.00;;;;;12.29;54.06;100598.72;5016363;28;45747;-66
2022/04/06 01:27:23;;;;;;;;;2.00;2.00;;;;;12.19;54.21;100596.16;5016365;28;45333;-67
2022/04/06 01:29:51;;;;;;;;;1.00;1.00;;;;;12.21;54.21;100596.00;5015448;28;45478;-67
2022/04/06 01:32:20;;;;;;;;;5.00;2.00;;;;;12.04;54.44;100570.28;5015753;28;45472;-66
2022/04/06 01:34:46;;;;;;;;;2.00;2.00;;;;;12.22;54.67;100591.53;5015948;28;45866;-67
2022/04/06 01:37:13;;;;;;;;;2.33;1.00;;;;;12.10;54.79;100601.59;5016592;28;45525;-69
2022/04/06 01:39:41;;;;;;;;;3.00;2.00;;;;;12.04;55.27;100596.91;5012100;28;45386;-66
2022/04/06 01:42:09;;;;;;;;;3.00;1.67;;;;;11.82;55.27;100566.31;4997012;28;45423;-69
2022/04/06 01:44:34;;;;;;;;;2.00;2.00;;;;;11.92;55.45;100588.34;5015269;28;46206;-68
2022/04/06 01:47:02;;;;;;;;;2.67;2.67;;;;;11.94;55.28;100591.69;5016236;28;45186;-67
2022/04/06 01:52:12;;;;;;;;;1.33;1.33;;;;;11.57;56.13;100559.91;5016544;28;45480;-68
2022/04/06 01:54:52;;;;;;;;;1.33;1.33;;;;;10.54;55.81;100385.81;5016051;28;45708;-67
2022/04/06 01:57:18;;;;;;;;;5.33;2.00;;;;;11.65;55.91;100570.66;5015980;28;45529;-66
2022/04/06 01:59:44;;;;;;;;;4.67;3.33;;;;;11.66;56.16;100588.28;5016348;28;45426;-69
2022/04/06 02:02:12;;;;;;;;;3.00;2.00;;;;;11.63;55.92;100588.59;5016812;28;45436;-66
2022/04/06 02:04:38;;;;;;;;;1.67;1.67;;;;;11.59;56.09;100573.91;5015762;28;45993;-67
2022/04/06 02:07:04;;;;;;;;;1.33;1.33;;;;;11.08;56.63;100513.44;5016204;28;45199;-68
2022/04/06 02:09:30;;;;;;;;;4.67;3.33;;;;;11.44;56.39;100584.28;5014808;28;45541;-69
2022/04/06 02:11:56;;;;;;;;;1.00;1.00;;;;;11.40;56.76;100569.59;5015461;28;45436;-68
2022/04/06 02:14:23;;;;;;;;;1.33;1.33;;;;;11.34;56.66;100580.84;5018835;28;45416;-67
2022/04/06 02:16:48;;;;;;;;;1.67;1.00;;;;;11.40;56.60;100588.22;5019199;28;45316;-67
2022/04/06 02:19:14;;;;;;;;;4.00;2.00;;;;;11.12;56.82;100542.25;4997901;28;45463;-68
2022/04/06 02:21:39;;;;;;;;;1.00;1.00;;;;;11.33;57.09;100573.03;4999961;28;45516;-67
2022/04/06 02:24:05;;;;;;;;;2.00;2.00;;;;;11.35;56.88;100587.00;4999422;28;45240;-67
2022/04/06 02:26:30;;;;;;;;;1.00;1.00;;;;;11.31;56.77;100575.00;4999518;28;45308;-67
2022/04/06 02:28:57;;;;;;;;;1.00;0.67;;;;;11.37;56.63;100569.06;5001598;28;45491;-68
2022/04/06 02:31:23;;;;;;;;;2.00;2.00;;;;;11.38;56.78;100578.72;5018459;28;45493;-68
2022/04/06 02:33:49;;;;;;;;;1.00;1.00;;;;;11.30;56.66;100555.53;5019085;28;46810;-66
2022/04/06 02:36:14;;;;;;;;;1.00;1.00;;;;;11.45;56.73;100566.50;5017610;28;45294;-68
2022/04/06 02:38:39;;;;;;;;;1.33;1.33;;;;;11.35;56.31;100544.44;5018163;28;45813;-67
2022/04/06 02:41:06;;;;;;;;;1.00;1.00;;;;;11.43;56.78;100556.00;5019155;28;45518;-67
2022/04/06 02:43:32;;;;;;;;;3.67;1.33;;;;;11.52;56.05;100557.72;5017177;28;48553;-67
2022/04/06 02:45:57;;;;;;;;;1.67;1.67;;;;;11.47;56.03;100543.22;5018945;28;45340;-67
2022/04/06 02:48:22;;;;;;;;;2.67;1.00;;;;;11.57;55.69;100546.59;5017738;28;45607;-68
2022/04/06 02:50:48;;;;;;;;;1.00;1.00;;;;;11.64;56.04;100542.34;5018773;28;45519;-67
2022/04/06 02:53:16;;;;;;;;;2.67;1.33;;;;;11.69;55.76;100553.34;5018925;28;46529;-66
2022/04/06 02:55:42;;;;;;;;;2.67;1.00;;;;;11.65;55.74;100535.19;5018942;28;45274;-67
2022/04/06 02:58:07;;;;;;;;;0.00;0.00;;;;;11.72;55.38;100542.38;5018974;28;45371;-66
2022/04/06 03:00:33;;;;;;;;;1.00;1.00;;;;;11.80;55.40;100547.78;5018882;28;45500;-68
2022/04/06 03:02:59;;;;;;;;;1.00;0.00;;;;;11.74;55.57;100536.91;5017314;28;45771;-69
2022/04/06 03:05:27;;;;;;;;;2.00;0.00;;;;;11.04;55.24;100427.78;5017369;28;45460;-68
2022/04/06 03:07:53;;;;;;;;;3.00;1.00;;;;;11.81;55.28;100537.97;5018722;28;45278;-68
2022/04/06 03:10:18;;;;;;;;;0.33;0.33;;;;;11.88;55.00;100529.22;5018412;28;45285;-69
2022/04/06 03:12:44;;;;;;;;;1.00;1.00;;;;;11.92;54.89;100540.38;5016927;28;47731;-66
2022/04/06 03:15:09;;;;;;;;;1.00;1.00;;;;;11.77;55.02;100512.63;5018614;28;45418;-68
2022/04/06 03:17:36;;;;;;;;;1.00;0.67;;;;;11.85;55.16;100537.53;5018616;28;45221;-67
2022/04/06 03:20:03;;;;;;;;;0.00;0.00;;;;;11.86;54.87;100523.22;5018332;28;45304;-67
2022/04/06 03:22:29;;;;;;;;;1.67;1.00;;;;;11.83;55.25;100512.88;5018563;28;45856;-67
2022/04/06 03:24:54;;;;;;;;;1.00;1.00;;;;;11.86;54.89;100520.53;5016556;28;45326;-67
2022/04/06 03:27:19;;;;;;;;;0.67;0.67;;;;;11.90;54.48;100504.25;5018388;28;45310;-67
2022/04/06 03:29:45;;;;;;;;;0.00;0.00;;;;;11.98;54.98;100512.25;5018447;28;45437;-68
2022/04/06 03:32:10;;;;;;;;;0.00;0.00;;;;;11.78;54.99;100479.66;5018453;28;46514;-67
2022/04/06 03:34:36;;;;;;;;;0.00;0.00;;;;;11.98;54.36;100496.28;5017976;28;45504;-67
2022/04/06 03:37:02;;;;;;;;;1.00;0.00;;;;;12.05;54.47;100511.50;5018508;28;45277;-68
2022/04/06 03:39:27;;;;;;;;;0.00;0.00;;;;;12.03;54.53;100507.31;5013649;28;45581;-67
2022/04/06 03:41:53;;;;;;;;;0.33;0.33;;;;;11.84;54.56;100490.56;4998365;28;45819;-68
2022/04/06 03:44:19;;;;;;;;;1.00;0.00;;;;;12.02;54.67;100495.00;5016724;28;45388;-67
2022/04/06 03:46:44;;;;;;;;;0.00;0.00;;;;;11.98;54.64;100478.47;5018296;28;45543;-67
2022/04/06 03:49:09;;;;;;;;;0.00;0.00;;;;;12.02;54.61;100503.00;5018097;28;45400;-67
2022/04/06 03:51:35;;;;;;;;;0.00;0.00;;;;;12.07;54.64;100500.66;5016516;28;47734;-66
2022/04/06 03:54:00;;;;;;;;;0.00;0.00;;;;;11.99;54.37;100496.13;5016651;28;45613;-67
2022/04/06 03:56:26;;;;;;;;;0.00;0.00;;;;;11.94;54.65;100478.94;5016960;28;45306;-68
2022/04/06 03:58:52;;;;;;;;;0.00;0.00;;;;;12.09;54.21;100493.34;5018250;28;45238;-67
2022/04/06 04:01:17;;;;;;;;;1.00;1.00;;;;;12.08;54.35;100494.34;5017498;28;46601;-67
2022/04/06 04:03:43;;;;;;;;;0.00;0.00;;;;;12.08;55.01;100497.00;5017384;28;45331;-66
2022/04/06 04:06:08;;;;;;;;;0.00;0.00;;;;;12.03;54.41;100492.16;5016523;28;45243;-68
2022/04/06 04:08:33;;;;;;;;;1.67;0.00;;;;;12.03;54.61;100489.50;5018159;28;45261;-66
2022/04/06 04:10:59;;;;;;;;;1.00;1.00;;;;;12.04;54.73;100493.00;5015985;28;47224;-68
2022/04/06 04:13:24;;;;;;;;;0.00;0.00;;;;;11.78;54.65;100461.88;5015885;28;46285;-67
2022/04/06 04:15:50;;;;;;;;;1.00;0.00;;;;;11.63;54.78;100449.31;5017729;28;45474;-67
2022/04/06 04:18:15;;;;;;;;;0.00;0.00;;;;;11.76;55.00;100469.16;5017716;28;45391;-66
2022/04/06 04:20:45;;;;;;;;;2.00;2.00;;;;;11.80;55.24;100472.38;5017181;28;45608;-67
2022/04/06 04:23:10;;;;;;;;;1.00;1.00;;;;;11.93;55.38;100482.59;5017324;28;45566;-69
2022/04/06 04:25:36;;;;;;;;;2.00;1.00;;;;;11.93;55.57;100498.59;5015854;28;45276;-67
2022/04/06 04:28:01;;;;;;;;;1.00;1.00;;;;;11.78;55.62;100472.53;5016409;28;45226;-68
2022/04/06 04:30:26;;;;;;;;;1.00;1.00;;;;;11.77;55.71;100483.31;5017034;28;45735;-68
2022/04/06 04:32:52;;;;;;;;;0.00;0.00;;;;;11.57;56.09;100456.91;5017011;28;45214;-68
2022/04/06 04:35:17;;;;;;;;;0.00;0.00;;;;;11.70;56.23;100485.78;5016164;28;45456;-66
2022/04/06 04:37:43;;;;;;;;;2.33;1.00;;;;;11.68;56.72;100474.47;5017210;28;45346;-67
2022/04/06 04:40:09;;;;;;;;;2.00;2.00;;;;;11.72;56.61;100474.97;5016881;28;47235;-66
2022/04/06 04:42:35;;;;;;;;;2.00;2.00;;;;;11.70;56.42;100475.13;5009044;28;45476;-66
2022/04/06 04:45:01;;;;;;;;;2.00;2.00;;;;;11.73;56.81;100477.47;4997155;28;45305;-66
2022/04/06 04:47:26;;;;;;;;;0.00;0.00;;;;;11.75;56.57;100464.84;4997263;28;45349;-69
2022/04/06 04:49:51;;;;;;;;;1.67;1.00;;;;;11.77;56.73;100468.16;4997110;28;45736;-67
2022/04/06 04:52:17;;;;;;;;;2.00;2.00;;;;;11.25;56.40;100377.72;5015071;28;45419;-68
2022/04/06 04:54:42;;;;;;;;;1.00;1.00;;;;;11.76;56.38;100455.84;5017118;28;45558;-67
2022/04/06 04:57:08;;;;;;;;;3.00;1.00;;;;;11.81;56.11;100464.25;5017108;28;45398;-68
2022/04/06 04:59:33;;;;;;;;;1.00;1.00;;;;;11.85;55.88;100446.97;5016432;28;46508;-67
2022/04/06 05:01:59;;;;;;;;;1.67;1.67;;;;;11.91;55.37;100458.78;5016981;28;45294;-67
2022/04/06 05:04:24;;;;;;;;;4.00;2.67;;;;;11.85;55.40;100443.47;5015159;28;45408;-68
2022/04/06 05:06:49;;;;;;;;;2.00;1.00;;;;;11.87;55.55;100452.13;5015960;28;45544;-68
2022/04/06 05:09:15;;;;;;;;;1.33;1.00;;;;;11.61;55.38;100403.34;5014701;28;47020;-67
2022/04/06 05:11:41;;;;;;;;;2.67;2.00;;;;;11.92;55.75;100446.31;5016391;28;45518;-68
2022/04/06 05:14:06;;;;;;;;;4.00;2.67;;;;;11.90;55.72;100446.47;5016034;28;45202;-68
2022/04/06 05:16:32;;;;;;;;;1.00;1.00;;;;;11.94;55.72;100452.31;5016584;28;45341;-67
2022/04/06 05:18:58;;;;;;;;;1.67;1.00;;;;;11.45;55.45;100393.47;5015580;28;46283;-68
2022/04/06 05:21:24;;;;;;;;;5.00;3.33;;;;;11.86;55.56;100447.78;5014683;28;45439;-67
2022/04/06 05:23:50;;;;;;;;;1.00;1.00;;;;;11.75;55.87;100422.22;5016336;28;45238;-68
2022/04/06 05:26:16;;;;;;;;;3.33;1.00;;;;;11.87;55.65;100442.31;5015954;28;45443;-70
2022/04/06 05:28:41;;;;;;;;;2.67;1.00;;;;;11.88;55.70;100429.81;5011041;28;47077;-69
2022/04/06 05:31:07;;;;;;;;;2.67;1.33;;;;;11.85;55.69;100433.63;4996369;28;45519;-70
2022/04/06 05:33:32;;;;;;;;;2.00;2.00;;;;;11.87;56.24;100447.63;4996744;28;45455;-70
2022/04/06 05:35:58;;;;;;;;;2.00;2.00;;;;;11.82;55.59;100436.63;5002868;28;45585;-74
2022/04/06 05:38:23;;;;;;;;;4.00;2.00;;;;;11.86;56.38;100451.28;5014606;28;47246;-67
2022/04/06 05:40:48;;;;;;;;;3.00;2.00;;;;;11.72;56.67;100441.19;5014736;28;45703;-66
2022/04/06 05:43:14;;;;;;;;;3.00;3.00;;;;;11.82;56.15;100465.94;5015401;28;45520;-68
2022/04/06 05:45:42;;;;;;;;;3.00;3.00;;;;;11.83;56.54;100458.78;5015657;28;45538;-69
2022/04/06 05:48:08;;;;;;;;;4.00;4.00;;;;;11.74;57.00;100451.69;5018632;28;45563;-67
2022/04/06 05:50:34;;;;;;;;;3.00;3.00;;;;;11.64;57.22;100445.66;5019440;28;45255;-67
2022/04/06 05:52:59;;;;;;;;;3.00;3.00;;;;;11.67;57.25;100435.50;5019704;28;45495;-68
2022/04/06 05:55:25;;;;;;;;;3.33;2.33;;;;;11.68;57.51;100444.34;5019760;28;45298;-69
2022/04/06 05:57:50;;;;;;;;;6.00;4.33;;;;;11.53;57.35;100420.94;5018127;28;48779;-68
2022/04/06 06:00:16;;;;;;;;;4.33;3.00;;;;;11.65;57.58;100447.31;5019544;28;45466;-69
2022/04/06 06:02:45;;;;;;;;;4.00;2.00;;;;;11.59;58.10;100449.59;5018277;28;45486;-70
2022/04/06 06:05:13;;;;;;;;;2.33;2.33;;;;;11.53;58.26;100450.22;5017457;28;45535;-69
2022/04/06 06:07:39;;;;;;;;;6.33;5.33;;;;;11.41;58.37;100430.22;5018825;28;45623;-68
2022/04/06 06:10:08;;;;;;;;;3.00;2.00;;;;;11.34;58.15;100418.50;5019412;28;45393;-69
2022/04/06 06:12:36;;;;;;;;;4.00;4.00;;;;;11.46;58.67;100451.03;5017707;28;45478;-68
2022/04/06 06:15:03;;;;;;;;;3.67;2.67;;;;;11.39;58.23;100434.00;5019571;28;45185;-69
2022/04/06 06:17:31;;;;;;;;;3.00;3.00;;;;;11.52;58.46;100448.56;5018681;28;46608;-67
2022/04/06 06:19:56;;;;;;;;;4.00;3.00;;;;;11.47;58.56;100447.38;5019140;28;45447;-67
2022/04/06 06:22:22;;;;;;;;;4.00;4.00;;;;;11.50;58.56;100439.91;5018710;28;45614;-69
2022/04/06 06:24:50;;;;;;;;;6.00;2.67;;;;;11.53;58.35;100438.75;5019228;28;45219;-73
2022/04/06 06:27:19;;;;;;;;;5.67;3.67;;;;;11.57;58.64;100437.44;5019999;28;45477;-69
2022/04/06 06:29:46;;;;;;;;;6.00;3.33;;;;;11.65;58.32;100437.50;5017531;28;45219;-67
2022/04/06 06:32:11;;;;;;;;;4.33;3.00;;;;;11.58;57.86;100423.97;5021724;28;45429;-68
2022/04/06 06:34:37;;;;;;;;;6.33;6.33;;;;;11.75;58.04;100440.03;5018290;28;45421;-67
2022/04/06 06:37:02;;;;;;;;;3.33;3.33;;;;;11.65;57.97;100410.88;5028339;28;45577;-68
2022/04/06 06:39:28;;;;;;;;;4.67;3.67;;;;;11.80;57.98;100435.91;5018724;28;45584;-68
2022/04/06 06:41:53;;;;;;;;;3.50;3.00;;;;;11.71;57.12;100415.56;5016477;28;45513;-68
2022/04/06 06:44:19;;;;;;;;;6.00;4.00;;;;;11.86;57.47;100435.31;5018135;28;45564;-70
2022/04/06 06:46:44;;;;;;;;;5.33;3.67;;;;;11.82;57.77;100428.63;5016996;28;46284;-67
2022/04/06 06:49:10;;;;;;;;;4.00;3.00;;;;;11.91;57.13;100421.50;5017738;28;45518;-68
2022/04/06 06:51:35;;;;;;;;;3.00;2.33;;;;;11.96;57.13;100426.34;5018240;28;45273;-69
2022/04/06 06:54:01;;;;;;;;;2.00;2.00;;;;;11.42;56.84;100349.38;5018417;28;45255;-67
2022/04/06 06:56:27;;;;;;;;;6.00;6.00;;;;;11.90;56.85;100427.00;5016598;28;47178;-69
2022/04/06 06:58:52;;;;;;;;;5.00;4.00;;;;;11.78;56.97;100400.63;5015064;28;46204;-68
2022/04/06 07:01:18;;;;;;;;;10.00;4.67;;;;;12.04;56.48;100432.56;5017483;28;45374;-68
2022/04/06 07:03:43;;;;;;;;;3.67;2.00;;;;;12.05;56.61;100428.88;5017144;28;45650;-67
2022/04/06 07:06:09;;;;;;;;;6.33;3.67;;;;;12.12;56.58;100429.91;5012186;28;47495;-68
2022/04/06 07:08:40;;;;;;;;;4.00;4.00;;;;;12.16;56.60;100422.41;5006787;28;45514;-69
2022/04/06 07:11:06;;;;;;;;;6.00;6.00;;;;;12.19;56.28;100403.44;5018271;28;45770;-68
2022/04/06 07:13:31;;;;;;;;;4.67;4.67;;;;;12.20;56.08;100394.44;5017286;28;45226;-69
2022/04/06 07:15:57;;;;;;;;;5.00;4.00;;;;;12.33;55.96;100408.13;5017155;28;47585;-69
2022/04/06 07:18:23;;;;;;;;;2.67;2.67;;;;;12.34;55.66;100415.13;5016688;28;45369;-68
2022/04/06 07:20:48;;;;;;;;;3.33;3.33;;;;;12.41;55.54;100424.16;5015440;28;45477;-69
2022/04/06 07:23:14;;;;;;;;;6.00;6.00;;;;;12.40;55.59;100411.81;5017761;28;45211;-68
2022/04/06 07:25:40;;;;;;;;;3.33;3.33;;;;;12.13;54.99;100350.78;5017521;28;46527;-68
2022/04/06 07:28:09;;;;;;;;;4.00;4.00;;;;;12.55;55.50;100404.00;5016104;28;45385;-67
2022/04/06 07:30:34;;;;;;;;;6.67;5.00;;;;;12.61;55.11;100407.84;5016329;28;45245;-67
2022/04/06 07:33:00;;;;;;;;;2.00;2.00;;;;;12.48;54.73;100374.50;5005129;28;45483;-67
2022/04/06 07:35:27;;;;;;;;;6.33;4.67;;;;;12.74;54.66;100409.03;5015803;28;45468;-68
2022/04/06 07:37:55;;;;;;;;;4.33;4.33;;;;;12.70;54.40;100415.69;5011525;28;45508;-70
2022/04/06 07:40:22;;;;;;;;;3.00;3.00;;;;;12.64;54.38;100399.53;5016873;28;45550;-69
2022/04/06 07:42:49;;;;;;;;;2.33;1.67;;;;;12.63;54.48;100405.88;5009827;28;45544;-70
2022/04/06 07:45:18;;;;;;;;;5.33;4.33;;;;;12.73;54.49;100420.69;5016246;28;46683;-68
2022/04/06 07:47:45;;;;;;;;;4.33;2.67;;;;;12.82;54.22;100418.88;5015746;28;45258;-67
2022/04/06 07:50:15;;;;;;;;;6.33;5.00;;;;;12.76;53.81;100404.34;5017496;28;45425;-69
2022/04/06 07:52:41;;;;;;;;;4.00;3.67;;;;;12.86;54.16;100406.88;5016985;28;45469;-68
2022/04/06 07:55:09;;;;;;;;;2.67;2.67;;;;;12.81;54.16;100390.50;5015358;28;45740;-67
2022/04/06 07:57:36;;;;;;;;;2.00;2.00;;;;;12.91;54.10;100398.34;5017005;28;45457;-68
2022/04/06 08:00:07;;;;;;;;;4.00;3.00;;;;;12.99;53.30;100407.19;5017396;28;45470;-68
2022/04/06 08:02:33;;;;;;;;;2.33;2.33;;;;;12.98;53.86;100389.50;5017798;28;45317;-67
2022/04/06 08:04:58;;;;;;;;;5.33;4.00;;;;;12.73;53.28;100331.84;5015785;28;47999;-68
2022/04/06 08:07:24;;;;;;;;;4.00;4.00;;;;;13.02;53.50;100369.50;5015322;28;45246;-74
2022/04/06 08:09:49;;;;;;;;;1.00;0.00;;;;;13.16;53.48;100391.16;5012323;28;45312;-68
2022/04/06 08:12:15;;;;;;;;;4.33;3.00;;;;;13.11;53.18;100378.31;5013589;28;45472;-73
2022/04/06 08:14:40;;;;;;;;;2.00;2.00;;;;;12.82;52.72;100322.84;5014239;28;46940;-68
2022/04/06 08:17:06;;;;;;;;;2.00;2.00;;;;;13.21;53.41;100375.47;5013453;28;45991;-69
2022/04/06 08:19:31;;;;;;;;;2.67;2.67;;;;;12.97;53.43;100345.13;5012856;28;45428;-69
2022/04/06 08:21:57;;;;;;;;;3.00;1.33;;;;;13.21;52.73;100373.66;5014471;28;45652;-68
2022/04/06 08:24:22;;;;;;;;;4.00;3.33;;;;;12.95;52.69;100320.47;5014493;28;47667;-68
2022/04/06 08:26:48;;;;;;;;;3.67;1.67;;;;;13.26;53.04;100374.00;5000820;28;45470;-68
2022/04/06 08:29:13;;;;;;;;;3.67;3.67;;;;;12.97;53.06;100317.63;5017424;28;45360;-67
2022/04/06 08:31:39;;;;;;;;;2.33;2.33;;;;;13.44;52.74;100381.78;5011048;28;45360;-68
2022/04/06 08:34:05;;;;;;;;;5.00;4.00;;;;;13.47;52.56;100370.75;4995237;28;46147;-68
2022/04/06 08:36:32;;;;;;;;;8.67;5.67;;;;;13.52;52.84;100371.06;5009654;28;45573;-69
2022/04/06 08:38:58;;;;;;;;;3.00;3.00;;;;;13.51;52.42;100360.56;5001356;28;45513;-68
2022/04/06 08:41:26;;;;;;;;;6.67;5.33;;;;;13.64;52.23;100379.56;5015851;28;45418;-68
2022/04/06 08:43:52;;;;;;;;;3.33;3.33;;;;;13.19;51.87;100297.41;5015602;28;46617;-68
2022/04/06 08:46:19;;;;;;;;;5.67;1.67;;;;;13.67;52.02;100374.69;5016530;28;45411;-68
2022/04/06 08:48:48;;;;;;;;;2.00;2.00;;;;;13.57;52.26;100371.38;5016781;28;45324;-67
2022/04/06 08:51:15;;;;;;;;;4.00;4.00;;;;;13.59;52.04;100369.38;5016289;28;45571;-69
2022/04/06 08:53:42;;;;;;;;;3.00;3.00;;;;;13.65;52.18;100366.03;5016543;28;47133;-68
2022/04/06 08:56:08;;;;;;;;;2.00;2.00;;;;;13.60;51.81;100368.38;5016072;28;45550;-67
2022/04/06 08:58:34;;;;;;;;;7.67;4.67;;;;;13.58;51.87;100353.53;5016481;28;45411;-66
2022/04/06 09:01:00;;;;;;;;;3.00;3.00;;;;;13.76;52.16;100367.47;5016236;28;45533;-67
2022/04/06 09:03:25;;;;;;;;;3.67;3.67;;;;;13.77;51.97;100363.78;5014494;28;46279;-68
2022/04/06 09:06:06;;;;;;;;;4.00;3.00;;;;;13.62;51.91;100357.53;5014571;28;45707;-67
2022/04/06 09:08:39;;;;;;;;;3.00;3.00;;;;;13.68;52.00;100360.34;5015694;28;45441;-68
2022/04/06 09:11:13;;;;;;;;;3.67;3.67;;;;;12.73;51.82;100209.13;5014426;28;45377;-67
2022/04/06 09:13:41;;;;;;;;;4.00;3.00;;;;;13.45;51.88;100303.34;5015440;28;45527;-69
2022/04/06 09:16:11;;;;;;;;;3.67;3.00;;;;;13.89;51.86;100358.91;4999531;28;45493;-70
2022/04/06 09:18:45;;;;;;;;;5.00;4.67;;;;;13.74;51.89;100347.28;4999510;28;45506;-69
2022/04/06 09:21:16;;;;;;;;;4.00;3.00;;;;;13.57;51.98;100312.63;5007206;28;45551;-67
2022/04/06 09:23:48;;;;;;;;;4.33;3.33;;;;;13.84;52.06;100342.56;5018992;28;46474;-66
2022/04/06 09:26:17;;;;;;;;;2.67;2.67;;;;;14.02;52.10;100364.53;5019540;28;45463;-67
2022/04/06 09:28:45;;;;;;;;;4.67;2.67;;;;;14.12;51.75;100362.44;5019960;28;45452;-67
2022/04/06 09:31:20;;;;;;;;;3.00;3.00;;;;;14.17;51.38;100344.03;5018247;28;45500;-68
2022/04/06 09:33:56;;;;;;;;;6.67;5.67;;;;;14.29;51.25;100347.13;5019217;28;46390;-66
2022/04/06 09:36:22;;;;;;;;;5.00;5.00;;;;;14.33;50.97;100348.44;5019189;28;45476;-68
2022/04/06 09:38:49;;;;;;;;;8.00;3.00;;;;;14.37;50.78;100351.59;5019175;28;45408;-68
2022/04/06 09:41:15;;;;;;;;;4.00;2.00;;;;;14.41;50.78;100355.56;5018144;28;45414;-67
2022/04/06 09:43:44;;;;;;;;;3.00;3.00;;;;;14.34;50.62;100350.09;5018449;28;46552;-68
2022/04/06 09:49:08;;;;;;;;;2.33;2.33;;;;;13.88;50.68;100285.09;5019339;28;45436;-67
2022/04/06 09:51:34;;;;;;;;;5.00;5.00;;;;;14.24;50.92;100345.00;5015852;28;45571;-67
2022/04/06 09:54:03;;;;;;;;;8.67;4.00;;;;;14.14;50.67;100355.09;5018479;28;45497;-67
2022/04/06 09:56:30;;;;;;;;;4.33;4.33;;;;;14.14;51.04;100355.09;5018142;28;45371;-67
2022/04/06 09:58:57;;;;;;;;;3.67;3.67;;;;;14.04;51.10;100322.41;5019309;28;45477;-68
2022/04/06 10:01:29;;;;;;;;;3.00;1.67;;;;;14.22;50.98;100352.38;5017216;28;45415;-68
2022/04/06 10:03:59;;;;;;;;;3.33;3.33;;;;;13.75;50.80;100279.47;5013917;28;46592;-67
2022/04/06 10:06:24;;;;;;;;;3.00;2.00;;;;;14.10;51.01;100353.78;5017400;28;45569;-69
2022/04/06 10:08:50;;;;;;;;;5.67;5.67;;;;;14.03;51.27;100339.47;5018979;28;45472;-68
2022/04/06 10:11:17;;;;;;;;;4.67;4.67;;;;;14.16;50.95;100358.41;5018215;28;45337;-68
2022/04/06 10:13:43;;;;;;;;;8.33;7.67;;;;;13.98;51.28;100328.44;5019042;28;45970;-67
2022/04/06 10:16:12;;;;;;;;;4.33;3.33;;;;;14.04;51.33;100351.81;5017290;28;45443;-67
2022/04/06 10:18:38;;;;;;;;;5.00;4.00;;;;;13.99;51.54;100340.78;5018548;28;45309;-68
2022/04/06 10:21:13;;;;;;;;;4.67;4.00;;;;;14.00;50.74;100332.59;5019324;28;45210;-69
2022/04/06 10:23:50;;;;;;;;;5.00;4.00;;;;;14.14;50.66;100322.16;5018855;28;45985;-68
2022/04/06 10:26:46;;;;;;;;;13.33;11.67;;;;;14.28;50.68;100316.91;5018391;28;45353;-67
2022/04/06 10:29:11;;;;;;;;;3.00;3.00;;;;;13.94;50.33;100230.94;5016676;28;45428;-69
2022/04/06 10:31:37;;;;;;;;;5.67;4.00;;;;;14.60;49.30;100293.59;5016856;28;45468;-68
2022/04/06 10:34:39;;;;;;;;;2.67;1.67;;;;;14.89;49.01;100314.22;5017453;28;47912;-68
2022/04/06 10:37:11;;;;;;;;;5.00;5.00;;;;;14.67;48.41;100254.41;4976727;28;45248;-68
2022/04/06 10:39:53;;;;;;;;;4.00;4.00;;;;;15.22;48.56;100312.06;5024594;28;45262;-70
2022/04/06 10:42:29;;;;;;;;;4.00;3.00;;;;;15.34;48.14;100307.88;5017469;28;45484;-73
2022/04/06 10:44:55;;;;;;;;;5.33;4.00;;;;;15.26;48.07;100294.59;5019264;28;46822;-67
2022/04/06 10:47:22;;;;;;;;;3.00;3.00;;;;;15.28;47.97;100299.75;5018060;28;45435;-69
2022/04/06 10:50:09;;;;;;;;;3.33;3.33;;;;;15.24;47.96;100303.84;5018173;28;45571;-67
2022/04/06 10:52:35;;;;;;;;;5.00;4.00;;;;;15.11;47.99;100288.41;5018733;28;45593;-69
2022/04/06 10:55:14;;;;;;;;;1.00;1.00;;;;;14.62;48.96;100232.72;5018060;28;45637;-68
2022/04/06 10:58:03;;;;;;;;;4.33;4.33;;;;;15.08;48.56;100270.03;5018068;28;45383;-68
2022/04/06 11:00:30;;;;;;;;;3.00;3.00;;;;;15.11;48.83;100278.53;5016301;28;45344;-70
2022/04/06 11:03:18;;;;;;;;;6.67;4.00;;;;;15.07;49.24;100276.41;5017014;28;45577;-67
2022/04/06 11:05:52;;;;;;;;;6.67;4.33;;;;;15.07;49.28;100266.53;5018358;28;45392;-69
2022/04/06 11:11:39;;;;;;;;;4.67;3.00;;;;;15.19;49.07;100253.50;5018452;28;45375;-68
2022/04/06 11:14:05;;;;;;;;;5.67;3.67;;;;;15.06;49.33;100242.63;5012611;28;45485;-71
2022/04/06 11:16:42;;;;;;;;;2.67;2.67;;;;;15.15;49.22;100252.19;5017799;28;45376;-69
2022/04/06 11:19:08;;;;;;;;;4.00;4.00;;;;;14.95;49.80;100210.94;5017275;28;45371;-68
2022/04/06 11:21:52;;;;;;;;;4.67;4.67;;;;;14.94;49.71;100198.59;5014667;28;45639;-68
2022/04/06 11:24:23;;;;;;;;;5.00;5.00;;;;;15.14;49.53;100242.50;5016662;28;45294;-68
2022/04/06 11:26:50;;;;;;;;;5.00;5.00;;;;;15.07;50.13;100242.44;5016633;28;48633;-69
2022/04/06 11:29:18;;;;;;;;;4.00;4.00;;;;;14.86;50.12;100210.22;5014567;28;45532;-69
2022/04/06 11:32:01;;;;;;;;;8.33;6.33;;;;;14.66;50.48;100188.53;5015705;28;45408;-69
2022/04/06 11:34:37;;;;;;;;;11.00;7.33;;;;;14.97;50.40;100225.81;5013581;28;45531;-71